createdAt,value
2023-04-03T00:00:33.113Z,99444.97
2023-04-03T00:03:00.040Z,99442.66
2023-04-03T00:05:27.325Z,99447.28
2023-04-03T00:07:54.025Z,99445.44
2023-04-03T00:10:21.064Z,99448.53
2023-04-03T00:12:47.792Z,99453.91
2023-04-03T00:15:14.829Z,99452.22
2023-04-03T00:17:41.550Z,99444.34
2023-04-03T00:20:08.785Z,99447.44
2023-04-03T00:22:35.836Z,99447.44
2023-04-03T00:25:02.561Z,99444.97
2023-04-03T00:27:29.279Z,99448.34
2023-04-03T00:29:56.082Z,99445.28
2023-04-03T00:32:22.913Z,99452.66
2023-04-03T00:34:49.872Z,99455.56
2023-04-03T00:37:16.562Z,99453.91
2023-04-03T00:39:43.290Z,99452.66
2023-04-03T00:42:10.038Z,99454.66
2023-04-03T00:44:36.696Z,99457.84
2023-04-03T00:47:05.069Z,99455.84
2023-04-03T00:49:31.864Z,99455.25
2023-04-03T00:51:59.406Z,99458.78
2023-04-03T00:54:26.747Z,99459.38
2023-04-03T00:56:54.930Z,99462.13
2023-04-03T00:59:27.498Z,99467.81
2023-04-03T01:01:58.677Z,99468.91
2023-04-03T01:04:40.430Z,99471.94
2023-04-03T01:07:16.248Z,99476.09
2023-04-03T01:09:43.805Z,99481.63
2023-04-03T01:12:21.521Z,99474.09
2023-04-03T01:14:51.342Z,99474.72
2023-04-03T01:17:44.465Z,99472.53
2023-04-03T01:20:29.500Z,99474.69
2023-04-03T01:23:23.988Z,99471.59
2023-04-03T01:25:53.107Z,99478.50
2023-04-03T01:28:28.783Z,99478.97
2023-04-03T01:31:16.748Z,99477.44
2023-04-03T01:33:44.317Z,99478.31
2023-04-03T01:36:16.502Z,99473.41
2023-04-03T01:38:43.271Z,99473.53
2023-04-03T01:41:10.057Z,99479.22
2023-04-03T01:43:36.770Z,99481.72
2023-04-03T01:46:03.578Z,99483.25
2023-04-03T01:48:30.339Z,99482.66
2023-04-03T01:50:57.074Z,99480.53
2023-04-03T01:53:23.796Z,99484.50
2023-04-03T01:55:50.456Z,99481.09
2023-04-03T01:58:17.262Z,99488.38
2023-04-03T02:00:43.944Z,99482.66
2023-04-03T02:03:10.900Z,99486.34
2023-04-03T02:05:37.602Z,99482.66
2023-04-03T02:08:04.594Z,99482.50
2023-04-03T02:10:31.403Z,99483.38
2023-04-03T02:12:58.148Z,99496.75
2023-04-03T02:15:24.886Z,99484.88
2023-04-03T02:17:51.811Z,99494.56
2023-04-03T02:20:18.721Z,99500.22
2023-04-03T02:22:45.514Z,99495.78
2023-04-03T02:25:12.802Z,99492.22
2023-04-03T02:27:39.854Z,99493.28
2023-04-03T02:30:07.672Z,99499.13
2023-04-03T02:32:34.431Z,99504.34
2023-04-03T02:35:01.127Z,99503.06
2023-04-03T02:37:27.923Z,99500.28
2023-04-03T02:39:54.639Z,99495.66
2023-04-03T02:42:21.409Z,99496.84
2023-04-03T02:44:48.127Z,99494.34
2023-04-03T02:47:14.918Z,99498.34
2023-04-03T02:49:41.689Z,99497.97
2023-04-03T02:52:08.411Z,99497.63
2023-04-03T02:54:35.342Z,99490.50
2023-04-03T02:57:02.265Z,99498.16
2023-04-03T02:59:29.062Z,99502.41
2023-04-03T03:01:56.867Z,99501.97
2023-04-03T03:04:23.685Z,99508.22
2023-04-03T03:06:50.385Z,99509.88
2023-04-03T03:09:17.193Z,99513.88
2023-04-03T03:11:43.887Z,99498.59
2023-04-03T03:14:10.648Z,99502.59
2023-04-03T03:16:37.471Z,99508.09
2023-04-03T03:19:04.232Z,99501.91
2023-04-03T03:21:31.102Z,99507.13
2023-04-03T03:23:57.784Z,99513.53
2023-04-03T03:26:24.823Z,99511.63
2023-04-03T03:28:51.662Z,99516.47
2023-04-03T03:31:18.627Z,99510.47
2023-04-03T03:33:45.346Z,99515.63
2023-04-03T03:36:12.155Z,99523.22
2023-04-03T03:38:39.001Z,99518.91
2023-04-03T03:41:05.887Z,99517.63
2023-04-03T03:43:32.803Z,99512.03
2023-04-03T03:45:59.531Z,99508.78
2023-04-03T03:48:26.307Z,99512.25
2023-04-03T03:50:53.084Z,99506.63
2023-04-03T03:53:20.342Z,99507.50
2023-04-03T03:55:47.072Z,99501.34
2023-04-03T03:58:13.778Z,99504.31
2023-04-03T04:00:40.517Z,99508.91
2023-04-03T04:03:07.378Z,99511.41
2023-04-03T04:05:34.098Z,99512.84
2023-04-03T04:08:00.884Z,99506.47
2023-04-03T04:10:27.575Z,99508.66
2023-04-03T04:12:54.681Z,99512.91
2023-04-03T04:15:22.715Z,99507.75
2023-04-03T04:17:49.880Z,99507.28
2023-04-03T04:20:16.669Z,99506.50
2023-04-03T04:22:43.486Z,99504.19
2023-04-03T04:25:10.859Z,99501.09
2023-04-03T04:27:38.087Z,99511.22
2023-04-03T04:30:05.536Z,99508.41
2023-04-03T04:32:32.305Z,99512.50
2023-04-03T04:34:59.110Z,99517.59
2023-04-03T04:37:26.006Z,99518.09
2023-04-03T04:39:52.749Z,99521.19
2023-04-03T04:42:19.472Z,99520.06
2023-04-03T04:44:46.240Z,99526.25
2023-04-03T04:47:13.014Z,99532.69
2023-04-03T04:49:39.703Z,99530.28
2023-04-03T04:52:07.291Z,99532.81
2023-04-03T04:54:34.070Z,99533.88
2023-04-03T04:57:00.871Z,99534.53
2023-04-03T04:59:27.568Z,99529.91
2023-04-03T05:01:54.486Z,99523.03
2023-04-03T05:04:21.404Z,99539.13
2023-04-03T05:06:48.234Z,99539.97
2023-04-03T05:09:15.014Z,99545.75
2023-04-03T05:11:41.650Z,99540.72
2023-04-03T05:14:08.526Z,99540.78
2023-04-03T05:16:35.668Z,99548.09
2023-04-03T05:19:02.421Z,99551.88
2023-04-03T05:21:33.050Z,99556.88
2023-04-03T05:24:03.540Z,99550.13
2023-04-03T05:26:31.593Z,99557.09
2023-04-03T05:28:58.833Z,99560.03
2023-04-03T05:31:25.761Z,99554.91
2023-04-03T05:33:52.491Z,99554.44
2023-04-03T05:36:19.751Z,99558.47
2023-04-03T05:38:46.638Z,99546.91
2023-04-03T05:41:14.360Z,99544.47
2023-04-03T05:43:41.120Z,99544.78
2023-04-03T05:46:12.562Z,99544.78
2023-04-03T05:48:39.437Z,99551.44
2023-04-03T05:51:07.209Z,99551.63
2023-04-03T05:53:37.612Z,99555.19
2023-04-03T05:56:05.455Z,99560.72
2023-04-03T05:58:32.237Z,99555.13
2023-04-03T06:00:58.985Z,99553.84
2023-04-03T06:03:26.562Z,99558.00
2023-04-03T06:05:53.733Z,99556.56
2023-04-03T06:08:20.441Z,99561.72
2023-04-03T06:10:47.421Z,99564.22
2023-04-03T06:13:14.681Z,99561.47
2023-04-03T06:15:41.467Z,99558.88
2023-04-03T06:18:08.386Z,99568.31
2023-04-03T06:20:35.836Z,99561.84
2023-04-03T06:23:03.097Z,99571.88
2023-04-03T06:25:29.991Z,99571.25
2023-04-03T06:27:56.869Z,99570.19
2023-04-03T06:30:23.567Z,99574.03
2023-04-03T06:32:50.368Z,99575.56
2023-04-03T06:35:17.131Z,99569.38
2023-04-03T06:37:43.869Z,99578.44
2023-04-03T06:40:23.403Z,99592.34
2023-04-03T06:42:50.569Z,99593.53
2023-04-03T06:45:17.737Z,99594.59
2023-04-03T06:47:44.578Z,99592.53
2023-04-03T06:50:14.944Z,99592.69
2023-04-03T06:52:42.231Z,99594.97
2023-04-03T06:55:09.459Z,99601.59
2023-04-03T06:57:36.951Z,99595.78
2023-04-03T07:00:06.014Z,99606.53
2023-04-03T07:02:33.348Z,99601.78
2023-04-03T07:05:00.313Z,99602.81
2023-04-03T07:07:29.150Z,99607.63
2023-04-03T07:09:55.931Z,99617.63
2023-04-03T07:12:22.824Z,99607.72
2023-04-03T07:14:49.866Z,99625.84
2023-04-03T07:17:16.645Z,99615.84
2023-04-03T07:19:43.336Z,99624.41
2023-04-03T07:22:11.975Z,99617.31
2023-04-03T07:24:38.681Z,99625.72
2023-04-03T07:27:05.744Z,99614.31
2023-04-03T07:29:32.794Z,99618.34
2023-04-03T07:31:59.744Z,99625.84
2023-04-03T07:34:26.731Z,99622.91
2023-04-03T07:36:53.864Z,99621.34
2023-04-03T07:39:20.647Z,99624.09
2023-04-03T07:41:47.621Z,99626.78
2023-04-03T07:44:14.315Z,99629.31
2023-04-03T07:46:41.873Z,99619.16
2023-04-03T07:49:08.643Z,99631.06
2023-04-03T07:51:35.636Z,99626.56
2023-04-03T07:54:02.543Z,99621.78
2023-04-03T07:56:29.377Z,99626.22
2023-04-03T07:58:56.237Z,99631.84
2023-04-03T08:01:23.006Z,99628.00
2023-04-03T08:03:50.708Z,99634.94
2023-04-03T08:06:21.701Z,99629.97
2023-04-03T08:08:54.580Z,99632.88
2023-04-03T08:11:21.863Z,99633.28
2023-04-03T08:13:48.623Z,99636.28
2023-04-03T08:16:19.664Z,99630.22
2023-04-03T08:18:46.455Z,99638.09
2023-04-03T08:21:13.592Z,99645.00
2023-04-03T08:23:42.126Z,99640.97
2023-04-03T08:26:14.418Z,99643.78
2023-04-03T08:28:41.572Z,99648.81
2023-04-03T08:31:12.028Z,99641.06
2023-04-03T08:33:39.628Z,99646.06
2023-04-03T08:36:08.464Z,99645.25
2023-04-03T08:38:38.222Z,99656.38
2023-04-03T08:41:17.107Z,99642.88
2023-04-03T08:44:02.702Z,99650.06
2023-04-03T08:46:49.322Z,99645.06
2023-04-03T08:49:41.988Z,99644.63
2023-04-03T08:52:16.110Z,99628.47
2023-04-03T08:54:55.272Z,99638.25
2023-04-03T08:57:29.701Z,99638.31
2023-04-03T08:59:58.942Z,99648.53
2023-04-03T09:02:31.754Z,99637.09
2023-04-03T09:04:58.794Z,99641.78
2023-04-03T09:07:48.638Z,99636.44
2023-04-03T09:10:22.763Z,99643.06
2023-04-03T09:13:08.206Z,99646.72
2023-04-03T09:15:38.980Z,99642.78
2023-04-03T09:18:21.281Z,99640.41
2023-04-03T09:20:58.624Z,99649.47
2023-04-03T09:23:30.239Z,99645.28
2023-04-03T09:26:16.551Z,99642.88
2023-04-03T09:28:50.495Z,99643.41
2023-04-03T09:31:20.863Z,99645.56
2023-04-03T09:33:51.340Z,99655.28
2023-04-03T09:36:41.781Z,99653.16
2023-04-03T09:39:20.425Z,99646.84
2023-04-03T09:42:01.272Z,99649.22
2023-04-03T09:44:33.912Z,99647.63
2023-04-03T09:47:01.283Z,99644.13
2023-04-03T09:49:28.073Z,99644.31
2023-04-03T09:51:54.829Z,99648.91
2023-04-03T09:54:26.423Z,99646.88
2023-04-03T09:56:54.736Z,99642.88
2023-04-03T09:59:21.455Z,99641.63
2023-04-03T10:02:21.493Z,99640.19
2023-04-03T10:04:53.065Z,99639.88
2023-04-03T10:07:34.814Z,99644.47
2023-04-03T10:10:26.586Z,99641.19
2023-04-03T10:13:20.163Z,99648.38
2023-04-03T10:16:02.716Z,99652.38
2023-04-03T10:18:43.993Z,99648.91
2023-04-03T10:21:27.571Z,99645.00
2023-04-03T10:24:19.314Z,99650.28
2023-04-03T10:27:00.011Z,99649.50
2023-04-03T10:29:37.353Z,99649.56
2023-04-03T10:32:12.894Z,99643.72
2023-04-03T10:34:43.410Z,99643.34
2023-04-03T10:37:25.352Z,99645.03
2023-04-03T10:40:00.908Z,99647.81
2023-04-03T10:42:38.304Z,99645.31
2023-04-03T10:45:42.050Z,99642.56
2023-04-03T10:48:16.668Z,99646.97
2023-04-03T10:51:28.332Z,99639.28
2023-04-03T10:54:21.252Z,99648.84
2023-04-03T10:57:14.831Z,99637.19
2023-04-03T10:59:58.053Z,99635.31
2023-04-03T11:02:25.271Z,99639.94
2023-04-03T11:05:00.904Z,99639.72
2023-04-03T11:07:32.780Z,99640.34
2023-04-03T11:10:45.977Z,99648.91
2023-04-03T11:13:15.489Z,99645.25
2023-04-03T11:15:42.824Z,99643.03
2023-04-03T11:18:13.237Z,99648.44
2023-04-03T11:20:44.513Z,99642.31
2023-04-03T11:23:25.617Z,99639.22
2023-04-03T11:25:56.104Z,99640.41
2023-04-03T11:28:22.972Z,99636.34
2023-04-03T11:31:17.655Z,99634.13
2023-04-03T11:34:03.569Z,99633.88
2023-04-03T11:36:35.696Z,99629.72
2023-04-03T11:39:16.688Z,99630.38
2023-04-03T11:41:43.555Z,99626.66
2023-04-03T11:44:31.313Z,99626.22
2023-04-03T11:47:00.521Z,99619.88
2023-04-03T11:50:02.242Z,99616.19
2023-04-03T11:52:44.555Z,99615.69
2023-04-03T11:55:23.627Z,99607.38
2023-04-03T11:58:03.465Z,99607.00
2023-04-03T12:00:45.791Z,99616.00
2023-04-03T12:03:27.845Z,99613.31
2023-04-03T12:05:58.781Z,99608.91
2023-04-03T12:08:46.670Z,99608.03
2023-04-03T12:11:13.414Z,99612.56
2023-04-03T12:13:45.877Z,99615.28
2023-04-03T12:16:58.391Z,99608.03
2023-04-03T12:22:10.050Z,99600.31
2023-04-03T12:24:43.202Z,99603.41
2023-04-03T12:27:21.969Z,99605.53
2023-04-03T12:29:55.709Z,99611.91
2023-04-03T12:32:35.367Z,99602.22
2023-04-03T12:35:29.914Z,99594.97
2023-04-03T12:38:35.284Z,99597.09
2023-04-03T12:41:23.576Z,99594.72
2023-04-03T12:44:00.730Z,99595.16
2023-04-03T12:46:41.675Z,99590.94
2023-04-03T12:49:30.247Z,99593.50
2023-04-03T12:51:57.339Z,99594.59
2023-04-03T12:54:28.461Z,99593.22
2023-04-03T12:57:18.860Z,99596.41
2023-04-03T12:59:47.606Z,99598.41
2023-04-03T13:02:24.878Z,99588.72
2023-04-03T13:04:53.728Z,99588.09
2023-04-03T13:07:41.988Z,99581.53
2023-04-03T13:10:08.851Z,99580.53
2023-04-03T13:12:37.043Z,99574.34
2023-04-03T13:15:16.813Z,99579.16
2023-04-03T13:17:43.797Z,99576.31
2023-04-03T13:20:20.970Z,99574.09
2023-04-03T13:23:01.731Z,99564.47
2023-04-03T13:25:31.851Z,99573.97
2023-04-03T13:28:12.595Z,99565.72
2023-04-03T13:30:42.051Z,99565.13
2023-04-03T13:33:27.005Z,99563.53
2023-04-03T13:36:01.558Z,99553.56
2023-04-03T13:38:33.890Z,99551.88
2023-04-03T13:41:28.033Z,99552.97
2023-04-03T13:44:00.636Z,99550.84
2023-04-03T13:46:37.146Z,99554.16
2023-04-03T13:49:33.004Z,99558.50
2023-04-03T13:52:07.342Z,99554.69
2023-04-03T13:54:37.835Z,99550.41
2023-04-03T13:57:16.082Z,99553.31
2023-04-03T13:59:44.096Z,99551.44
2023-04-03T14:02:22.747Z,99537.91
2023-04-03T14:04:57.470Z,99537.81
2023-04-03T14:07:25.282Z,99539.78
2023-04-03T14:09:52.241Z,99541.47
2023-04-03T14:12:30.867Z,99535.41
2023-04-03T14:15:00.988Z,99532.38
2023-04-03T14:17:28.849Z,99530.91
2023-04-03T14:19:57.422Z,99529.09
2023-04-03T14:22:27.453Z,99531.78
2023-04-03T14:24:54.356Z,99527.91
2023-04-03T14:27:29.689Z,99535.94
2023-04-03T14:30:00.152Z,99522.50
2023-04-03T14:32:27.548Z,99519.41
2023-04-03T14:34:55.107Z,99521.72
2023-04-03T14:37:24.812Z,99536.09
2023-04-03T14:39:53.938Z,99533.22
2023-04-03T14:42:33.629Z,99527.59
2023-04-03T14:45:02.159Z,99525.06
2023-04-03T14:47:32.204Z,99528.91
2023-04-03T14:50:04.325Z,99530.69
2023-04-03T14:52:34.977Z,99534.00
2023-04-03T14:55:03.265Z,99535.59
2023-04-03T14:57:31.376Z,99534.50
2023-04-03T14:59:58.309Z,99539.44
2023-04-03T15:02:32.260Z,99542.22
2023-04-03T15:05:00.665Z,99542.13
2023-04-03T15:07:29.220Z,99540.19
2023-04-03T15:09:59.110Z,99538.66
2023-04-03T15:12:26.301Z,99526.94
2023-04-03T15:15:00.813Z,99534.50
2023-04-03T15:17:29.822Z,99528.47
2023-04-03T15:19:56.980Z,99534.22
2023-04-03T15:22:23.706Z,99537.06
2023-04-03T15:24:50.586Z,99534.66
2023-04-03T15:27:17.785Z,99540.56
2023-04-03T15:29:45.931Z,99536.19
2023-04-03T15:32:13.494Z,99529.63
2023-04-03T15:34:41.060Z,99525.56
2023-04-03T15:37:07.786Z,99536.53
2023-04-03T15:39:34.589Z,99528.66
2023-04-03T15:42:06.877Z,99529.19
2023-04-03T15:44:35.448Z,99540.28
2023-04-03T15:47:02.932Z,99541.25
2023-04-03T15:49:30.141Z,99536.84
2023-04-03T15:51:56.865Z,99534.75
2023-04-03T15:54:25.027Z,99546.44
2023-04-03T15:56:52.504Z,99539.50
2023-04-03T15:59:19.448Z,99551.00
2023-04-03T16:01:46.839Z,99561.16
2023-04-03T16:04:15.427Z,99581.69
2023-04-03T16:06:42.993Z,99576.06
2023-04-03T16:09:10.226Z,99572.75
2023-04-03T16:11:40.069Z,99568.81
2023-04-03T16:14:07.922Z,99565.22
2023-04-03T16:16:35.106Z,99563.91
2023-04-03T16:19:01.868Z,99565.38
2023-04-03T16:21:29.082Z,99566.63
2023-04-03T16:23:58.765Z,99570.22
2023-04-03T16:26:26.280Z,99561.91
2023-04-03T16:28:54.100Z,99573.38
2023-04-03T16:31:24.034Z,99580.03
2023-04-03T16:33:50.959Z,99577.41
2023-04-03T16:36:17.730Z,99586.56
2023-04-03T16:38:44.620Z,99584.44
2023-04-03T16:41:11.320Z,99591.69
2023-04-03T16:43:37.959Z,99598.03
2023-04-03T16:46:04.893Z,99601.13
2023-04-03T16:48:32.123Z,99601.75
2023-04-03T16:50:59.086Z,99606.06
2023-04-03T16:53:26.677Z,99599.63
2023-04-03T16:55:58.668Z,99607.19
2023-04-03T16:58:25.545Z,99613.34
2023-04-03T17:00:52.493Z,99611.34
2023-04-03T17:03:19.286Z,99619.66
2023-04-03T17:05:49.167Z,99627.06
2023-04-03T17:08:18.029Z,99621.84
2023-04-03T17:10:44.764Z,99626.75
2023-04-03T17:13:11.572Z,99639.53
2023-04-03T17:15:38.798Z,99644.34
2023-04-03T17:18:05.807Z,99650.16
2023-04-03T17:20:34.754Z,99659.41
2023-04-03T17:23:01.603Z,99663.59
2023-04-03T17:25:29.409Z,99667.59
2023-04-03T17:27:56.920Z,99681.84
2023-04-03T17:30:23.870Z,99687.25
2023-04-03T17:32:50.893Z,99698.06
2023-04-03T17:35:17.706Z,99698.94
2023-04-03T17:37:44.578Z,99706.78
2023-04-03T17:40:14.290Z,99714.94
2023-04-03T17:42:41.042Z,99722.28
2023-04-03T17:45:08.223Z,99729.69
2023-04-03T17:47:35.104Z,99735.66
2023-04-03T17:50:01.934Z,99739.06
2023-04-03T17:52:28.778Z,99743.03
2023-04-03T17:54:55.700Z,99761.84
2023-04-03T17:57:22.439Z,99763.97
2023-04-03T17:59:49.337Z,99766.59
2023-04-03T18:02:16.118Z,99762.28
2023-04-03T18:04:42.901Z,99767.53
2023-04-03T18:07:10.217Z,99775.53
2023-04-03T18:09:37.846Z,99781.88
2023-04-03T18:12:06.266Z,99790.97
2023-04-03T18:14:34.139Z,99796.31
2023-04-03T18:17:01.035Z,99804.44
2023-04-03T18:19:29.763Z,99825.72
2023-04-03T18:21:58.236Z,99829.06
2023-04-03T18:24:26.165Z,99830.81
2023-04-03T18:26:59.757Z,99836.75
2023-04-03T18:29:28.722Z,99835.34
2023-04-03T18:31:56.355Z,99827.00
2023-04-03T18:34:23.227Z,99823.44
2023-04-03T18:36:50.121Z,99827.81
2023-04-03T18:39:16.939Z,99828.41
2023-04-03T18:41:43.676Z,99836.53
2023-04-03T18:44:13.319Z,99840.03
2023-04-03T18:46:40.040Z,99842.06
2023-04-03T18:49:08.015Z,99839.53
2023-04-03T18:51:34.851Z,99842.38
2023-04-03T18:54:02.662Z,99846.34
2023-04-03T18:56:30.211Z,99846.44
2023-04-03T18:58:56.867Z,99856.22
2023-04-03T19:01:23.875Z,99856.91
2023-04-03T19:03:50.570Z,99856.81
2023-04-03T19:06:17.309Z,99853.22
2023-04-03T19:08:44.086Z,99853.41
2023-04-03T19:11:11.217Z,99858.75
2023-04-03T19:13:51.803Z,99857.50
2023-04-03T19:16:25.111Z,99856.09
2023-04-03T19:18:52.099Z,99855.34
2023-04-03T19:21:18.852Z,99852.59
2023-04-03T19:23:45.734Z,99858.41
2023-04-03T19:26:13.633Z,99856.47
2023-04-03T19:28:41.688Z,99858.69
2023-04-03T19:31:13.992Z,99857.25
2023-04-03T19:33:41.926Z,99856.53
2023-04-03T19:36:08.917Z,99847.22
2023-04-03T19:38:36.669Z,99849.91
2023-04-03T19:41:09.207Z,99846.69
2023-04-03T19:43:36.971Z,99854.31
2023-04-03T19:46:06.244Z,99856.91
2023-04-03T19:48:34.819Z,99863.69
2023-04-03T19:51:01.624Z,99855.75
2023-04-03T19:53:29.103Z,99859.78
2023-04-03T19:55:57.058Z,99860.03
2023-04-03T19:58:25.293Z,99848.56
2023-04-03T20:00:52.030Z,99852.00
2023-04-03T20:03:19.105Z,99855.56
2023-04-03T20:05:46.703Z,99844.81
2023-04-03T20:08:13.576Z,99846.50
2023-04-03T20:10:40.688Z,99838.22
2023-04-03T20:13:10.487Z,99832.78
2023-04-03T20:15:41.018Z,99831.88
2023-04-03T20:18:09.397Z,99840.88
2023-04-03T20:20:42.151Z,99835.81
2023-04-03T20:23:11.102Z,99841.25
2023-04-03T20:25:54.026Z,99840.16
2023-04-03T20:28:28.985Z,99826.38
2023-04-03T20:30:56.929Z,99820.03
2023-04-03T20:33:26.141Z,99829.88
2023-04-03T20:35:54.329Z,99833.75
2023-04-03T20:38:21.383Z,99825.72
2023-04-03T20:40:48.889Z,99826.22
2023-04-03T20:43:15.930Z,99822.56
2023-04-03T20:45:42.861Z,99822.84
2023-04-03T20:48:10.747Z,99821.06
2023-04-03T20:50:37.587Z,99821.28
2023-04-03T20:53:04.375Z,99825.25
2023-04-03T20:55:31.136Z,99814.88
2023-04-03T20:58:01.294Z,99818.63
2023-04-03T21:00:29.407Z,99817.06
2023-04-03T21:02:57.159Z,99812.41
2023-04-03T21:05:26.286Z,99811.00
2023-04-03T21:08:32.003Z,99811.47
2023-04-03T21:11:36.444Z,99816.63
2023-04-03T21:14:42.453Z,99816.06
2023-04-03T21:17:09.066Z,99820.22
2023-04-03T21:19:43.129Z,99813.41
2023-04-03T21:22:10.310Z,99807.63
2023-04-03T21:24:37.694Z,99810.50
2023-04-03T21:27:04.961Z,99812.91
2023-04-03T21:29:31.778Z,99815.19
2023-04-03T21:31:59.838Z,99813.06
2023-04-03T21:34:28.068Z,99814.41
2023-04-03T21:36:56.002Z,99812.28
2023-04-03T21:39:23.163Z,99814.03
2023-04-03T21:41:51.794Z,99817.53
2023-04-03T21:44:19.343Z,99809.03
2023-04-03T21:46:53.727Z,99808.72
2023-04-03T21:49:21.650Z,99812.63
2023-04-03T21:51:48.671Z,99808.97
2023-04-03T21:54:15.990Z,99808.25
2023-04-03T21:56:42.729Z,99804.09
2023-04-03T21:59:09.524Z,99787.81
2023-04-03T22:01:36.801Z,99790.16
2023-04-03T22:04:03.630Z,99791.16
2023-04-03T22:06:30.441Z,99786.47
2023-04-03T22:08:57.186Z,99786.25
2023-04-03T22:11:27.625Z,99771.56
2023-04-03T22:13:55.619Z,99777.38
2023-04-03T22:16:23.576Z,99772.56
2023-04-03T22:18:52.518Z,99779.69
2023-04-03T22:21:19.501Z,99788.97
2023-04-03T22:23:46.365Z,99778.84
2023-04-03T22:26:13.605Z,99777.06
2023-04-03T22:28:45.034Z,99768.56
2023-04-03T22:31:13.455Z,99772.25
2023-04-03T22:33:41.379Z,99773.31
2023-04-03T22:36:09.767Z,99778.03
2023-04-03T22:38:37.095Z,99777.81
2023-04-03T22:41:08.133Z,99783.16
2023-04-03T22:43:36.317Z,99784.47
2023-04-03T22:46:04.953Z,99779.28
2023-04-03T22:48:32.050Z,99777.72
2023-04-03T22:51:00.141Z,99780.88
2023-04-03T22:53:27.760Z,99780.84
2023-04-03T22:55:58.258Z,99769.38
2023-04-03T22:58:28.852Z,99771.13
2023-04-03T23:00:57.155Z,99778.59
2023-04-03T23:03:24.553Z,99784.31
2023-04-03T23:05:51.918Z,99781.16
2023-04-03T23:08:19.495Z,99776.72
2023-04-03T23:10:46.336Z,99780.38
2023-04-03T23:13:13.063Z,99782.50
2023-04-03T23:15:39.998Z,99769.56
2023-04-03T23:18:06.914Z,99784.72
2023-04-03T23:20:33.690Z,99780.88
2023-04-03T23:23:00.385Z,99794.91
2023-04-03T23:25:27.092Z,99789.47
2023-04-03T23:27:53.910Z,99786.38
2023-04-03T23:30:21.372Z,99784.03
2023-04-03T23:32:48.395Z,99775.69
2023-04-03T23:35:15.170Z,99776.22
2023-04-03T23:37:41.882Z,99774.66
2023-04-03T23:40:10.055Z,99786.13
2023-04-03T23:42:36.779Z,99780.94
2023-04-03T23:45:03.697Z,99773.91
2023-04-03T23:47:30.437Z,99774.75
2023-04-03T23:49:57.305Z,99774.75
2023-04-03T23:52:24.048Z,99782.81
2023-04-03T23:54:51.142Z,99773.75
2023-04-03T23:57:17.816Z,99776.09
2023-04-03T23:59:44.615Z,99774.34
